Time;durP1;ratioP1;P1;durP2;ratioP2;P2;SDS_P1;SDS_P2;PMS_P1;PMS_P2;Temp;Humidity;BMP_temperature;BMP_pressure;BME280_temperature;BME280_humidity;BME280_pressure;Samples;Min_cycle;Max_cycle;Signal;HPM_P1;HPM_P2
2021/06/01 00:02:29;;;;;;;4.60;2.60;;;14.50;94.70;;;;;;5013067;28;20044;-67
2021/06/01 00:05:33;;;;;;;5.25;3.53;;;14.50;94.50;;;;;;5012868;28;20052;-67
2021/06/01 00:08:38;;;;;;;5.90;2.85;;;14.50;94.50;;;;;;5013037;28;20053;-67
2021/06/01 00:11:43;;;;;;;7.28;2.92;;;14.50;94.20;;;;;;5012347;28;20041;-67
2021/06/01 00:14:48;;;;;;;4.55;2.83;;;14.50;94.60;;;;;;5012772;28;20041;-67
2021/06/01 00:17:52;;;;;;;7.35;2.80;;;14.40;94.50;;;;;;5014282;28;20057;-67
2021/06/01 00:20:56;;;;;;;5.28;3.05;;;14.30;94.90;;;;;;5031838;28;20511;-67
2021/06/01 00:24:00;;;;;;;3.90;3.03;;;14.10;95.20;;;;;;5031851;28;20056;-67
2021/06/01 00:27:06;;;;;;;5.28;3.17;;;14.00;95.70;;;;;;5032047;28;20048;-67
2021/06/01 00:30:10;;;;;;;6.68;3.35;;;14.00;95.90;;;;;;5031817;28;20048;-67
2021/06/01 00:33:14;;;;;;;5.32;3.00;;;14.00;96.00;;;;;;5032446;28;20052;-67
2021/06/01 00:36:18;;;;;;;5.88;2.78;;;14.00;96.40;;;;;;5031745;28;20048;-67
2021/06/01 00:39:23;;;;;;;2.83;2.38;;;13.90;96.40;;;;;;5031021;28;20048;-67
2021/06/01 00:42:27;;;;;;;3.50;2.90;;;13.80;96.60;;;;;;5031797;28;20048;-67
2021/06/01 00:45:31;;;;;;;6.68;2.80;;;13.80;96.80;;;;;;5032266;28;20040;-67
2021/06/01 00:48:36;;;;;;;7.20;3.50;;;13.80;96.80;;;;;;5031647;28;20052;-67
2021/06/01 00:51:39;;;;;;;3.70;3.00;;;13.80;96.70;;;;;;5031578;28;20049;-67
2021/06/01 00:54:43;;;;;;;8.10;3.78;;;13.80;96.90;;;;;;5030268;28;20049;-67
2021/06/01 00:57:47;;;;;;;3.63;2.65;;;13.70;96.90;;;;;;5031835;28;20045;-68
2021/06/01 01:04:11;;;;;;;3.75;2.80;;;13.70;97.50;;;;;;5011693;28;20053;-67
2021/06/01 01:07:32;;;;;;;4.63;3.40;;;13.60;97.80;;;;;;5011498;28;20048;-67
2021/06/01 01:10:40;;;;;;;4.35;2.70;;;13.60;98.00;;;;;;5010396;28;20036;-67
2021/06/01 01:13:59;;;;;;;4.70;3.20;;;13.60;97.90;;;;;;5011542;28;20048;-67
2021/06/01 01:17:24;;;;;;;3.63;3.00;;;13.60;98.00;;;;;;4999732;28;20053;-68
2021/06/01 01:20:39;;;;;;;4.22;3.10;;;13.60;98.10;;;;;;5018618;28;20513;-67
2021/06/01 01:23:53;;;;;;;5.55;3.58;;;13.50;98.40;;;;;;5026665;28;20045;-67
2021/06/01 01:27:07;;;;;;;7.10;3.55;;;13.40;99.10;;;;;;5030345;28;20065;-67
2021/06/01 01:30:14;;;;;;;6.35;3.90;;;13.20;99.90;;;;;;5030575;28;20056;-67
2021/06/01 01:33:25;;;;;;;5.50;4.03;;;13.20;99.90;;;;;;5020497;28;20043;-67
2021/06/01 01:36:33;;;;;;;7.68;3.88;;;13.20;99.90;;;;;;5018647;28;20495;-67
2021/06/01 01:39:44;;;;;;;7.50;3.38;;;13.20;99.90;;;;;;5030100;28;20044;-68
2021/06/01 01:42:53;;;;;;;7.40;4.17;;;13.10;99.90;;;;;;5028078;28;20044;-67
2021/06/01 01:46:12;;;;;;;5.43;4.32;;;13.10;99.90;;;;;;5030847;28;20527;-67
2021/06/01 01:49:24;;;;;;;5.55;3.85;;;13.10;99.90;;;;;;5030198;28;20165;-67
2021/06/01 01:52:29;;;;;;;5.95;3.95;;;13.10;99.90;;;;;;5030968;28;20045;-67
2021/06/01 01:55:34;;;;;;;4.75;3.67;;;13.00;99.90;;;;;;5018836;28;20052;-67
2021/06/01 01:58:38;;;;;;;4.70;3.80;;;13.00;99.90;;;;;;5017349;28;20033;-67
2021/06/01 02:01:46;;;;;;;7.25;3.75;;;13.00;99.90;;;;;;5030160;28;20038;-67
2021/06/01 02:04:50;;;;;;;6.32;3.65;;;12.90;99.90;;;;;;5029815;28;20041;-67
2021/06/01 02:07:54;;;;;;;6.60;4.15;;;12.90;99.90;;;;;;5025263;28;20049;-67
2021/06/01 02:11:00;;;;;;;8.75;3.80;;;12.90;99.90;;;;;;5019394;28;20045;-67
2021/06/01 02:14:05;;;;;;;4.60;3.80;;;12.90;99.90;;;;;;5018551;28;20052;-67
2021/06/01 02:17:10;;;;;;;4.93;3.75;;;12.90;99.90;;;;;;5030022;28;20048;-67
2021/06/01 02:20:15;;;;;;;5.88;3.63;;;12.90;99.90;;;;;;5023446;28;20400;-67
2021/06/01 02:23:48;;;;;;;4.20;3.80;;;12.90;99.90;;;;;;5021627;28;20388;-67
2021/06/01 02:26:57;;;;;;;5.82;3.95;;;12.90;99.90;;;;;;5009666;28;20511;-67
2021/06/01 02:30:10;;;;;;;5.70;3.58;;;12.80;99.90;;;;;;5019017;28;20064;-67
2021/06/01 02:33:23;;;;;;;3.88;3.05;;;12.80;99.90;;;;;;5029997;28;20045;-67
2021/06/01 02:36:28;;;;;;;4.43;3.50;;;12.70;99.90;;;;;;5029907;28;20519;-67
2021/06/01 02:39:33;;;;;;;5.15;3.50;;;12.80;99.90;;;;;;5010823;28;20045;-67
2021/06/01 02:42:39;;;;;;;5.32;3.70;;;12.90;99.90;;;;;;5009335;28;20052;-67
2021/06/01 02:45:45;;;;;;;7.50;3.60;;;12.90;99.90;;;;;;5009828;28;20040;-67
2021/06/01 02:48:49;;;;;;;4.85;3.60;;;12.70;99.90;;;;;;5010273;28;20392;-67
2021/06/01 02:51:54;;;;;;;6.93;4.05;;;12.40;99.90;;;;;;5009624;28;20056;-67
2021/06/01 02:55:01;;;;;;;9.73;4.50;;;12.20;99.90;;;;;;5012824;28;20045;-67
2021/06/01 02:58:08;;;;;;;8.20;4.20;;;12.10;99.90;;;;;;5023223;28;20041;-67
2021/06/01 03:01:18;;;;;;;6.43;4.28;;;12.00;99.90;;;;;;5018590;28;20507;-67
2021/06/01 03:04:22;;;;;;;7.80;3.92;;;11.90;99.90;;;;;;5011699;28;20049;-67
2021/06/01 03:07:26;;;;;;;5.78;4.50;;;11.80;99.90;;;;;;5029690;28;20060;-67
2021/06/01 03:10:31;;;;;;;5.90;4.63;;;11.70;99.90;;;;;;5028371;28;20048;-67
2021/06/01 03:13:35;;;;;;;5.35;4.63;;;11.60;99.90;;;;;;5022440;28;20500;-67
2021/06/01 03:16:39;;;;;;;8.80;5.40;;;11.50;99.90;;;;;;5009371;28;20508;-67
2021/06/01 03:19:43;;;;;;;4.65;3.67;;;11.50;99.90;;;;;;5013166;28;20044;-67
2021/06/01 03:22:48;;;;;;;7.47;4.50;;;11.50;99.90;;;;;;5013872;28;20393;-67
2021/06/01 03:25:52;;;;;;;7.20;4.75;;;11.40;99.90;;;;;;5013248;28;20049;-66
2021/06/01 03:28:56;;;;;;;6.53;4.65;;;11.30;99.90;;;;;;5013645;28;20061;-67
2021/06/01 03:32:01;;;;;;;6.93;4.97;;;11.30;99.90;;;;;;5031604;28;20390;-67
2021/06/01 03:35:06;;;;;;;9.07;4.90;;;11.30;99.90;;;;;;5033123;28;20052;-67
2021/06/01 03:38:11;;;;;;;7.57;5.15;;;11.30;99.90;;;;;;5033484;28;20509;-67
2021/06/01 03:41:16;;;;;;;7.97;5.70;;;11.30;99.90;;;;;;5032179;28;20040;-67
2021/06/01 03:44:20;;;;;;;7.38;5.70;;;11.30;99.90;;;;;;5033162;28;20052;-67
2021/06/01 03:47:24;;;;;;;8.88;5.18;;;11.30;99.90;;;;;;5033315;28;20053;-67
2021/06/01 03:50:28;;;;;;;10.43;5.10;;;11.40;99.90;;;;;;5031774;28;20048;-67
2021/06/01 03:53:32;;;;;;;7.85;4.88;;;11.40;99.90;;;;;;5033139;28;20049;-67
2021/06/01 03:56:37;;;;;;;10.75;5.05;;;11.40;99.90;;;;;;5032650;28;20048;-67
2021/06/01 03:59:42;;;;;;;17.48;8.13;;;11.40;99.90;;;;;;5032837;28;20056;-67
2021/06/01 04:02:46;;;;;;;9.13;5.68;;;11.40;99.90;;;;;;5032954;28;20052;-67
2021/06/01 04:05:52;;;;;;;7.90;4.50;;;11.50;99.90;;;;;;5032326;28;20310;-67
2021/06/01 04:08:57;;;;;;;5.75;4.25;;;11.50;99.90;;;;;;5032065;28;20052;-67
2021/06/01 04:12:01;;;;;;;8.75;4.40;;;11.50;99.90;;;;;;5019450;28;20056;-67
2021/06/01 04:15:06;;;;;;;8.15;5.05;;;11.60;99.90;;;;;;5032544;28;20041;-67
2021/06/01 04:18:11;;;;;;;6.85;4.20;;;11.70;99.90;;;;;;5032611;28;20053;-67
2021/06/01 04:21:15;;;;;;;5.18;3.55;;;11.90;99.90;;;;;;5019597;28;20052;-67
2021/06/01 04:24:20;;;;;;;5.47;3.40;;;12.00;99.90;;;;;;5031818;28;20218;-67
2021/06/01 04:27:24;;;;;;;7.43;3.47;;;12.20;99.90;;;;;;5032072;28;20039;-68
2021/06/01 04:30:29;;;;;;;9.48;3.50;;;13.00;99.90;;;;;;5029324;28;20516;-67
2021/06/01 04:33:33;;;;;;;4.82;2.78;;;15.60;99.90;;;;;;5012452;28;20049;-67
2021/06/01 04:36:38;;;;;;;7.68;3.50;;;17.90;99.90;;;;;;5014574;28;20499;-67
2021/06/01 04:39:42;;;;;;;4.75;3.28;;;19.40;97.50;;;;;;5015734;28;20045;-68
2021/06/01 04:42:47;;;;;;;5.85;3.63;;;17.60;98.70;;;;;;5028444;28;20045;-68
2021/06/01 04:45:53;;;;;;;7.75;3.63;;;18.40;98.70;;;;;;5031281;28;20040;-68
2021/06/01 04:48:57;;;;;;;8.55;3.10;;;19.00;98.10;;;;;;5031613;28;20048;-68
2021/06/01 04:52:03;;;;;;;5.30;2.97;;;20.90;96.60;;;;;;5030666;28;20048;-68
2021/06/01 04:55:09;;;;;;;6.60;3.88;;;22.00;94.70;;;;;;5030428;28;20040;-67
2021/06/01 04:58:13;;;;;;;4.63;3.85;;;22.90;92.90;;;;;;5031169;28;20045;-67
2021/06/01 05:01:17;;;;;;;5.57;3.50;;;21.40;93.40;;;;;;5030925;28;20116;-68
2021/06/01 05:04:22;;;;;;;8.27;4.88;;;21.90;93.10;;;;;;5015669;28;20045;-68
2021/06/01 05:07:27;;;;;;;6.80;3.58;;;22.40;92.20;;;;;;5021806;28;20065;-68
2021/06/01 05:10:32;;;;;;;10.63;4.85;;;22.10;92.20;;;;;;5011352;28;20045;-68
2021/06/01 05:13:36;;;;;;;6.22;4.15;;;20.60;93.10;;;;;;5021549;28;20045;-68
2021/06/01 05:16:41;;;;;;;7.88;4.05;;;18.80;96.20;;;;;;5011077;28;20041;-68
2021/06/01 05:19:45;;;;;;;6.75;3.75;;;19.90;95.60;;;;;;5010810;28;20056;-68
2021/06/01 05:22:49;;;;;;;6.47;3.30;;;22.00;93.80;;;;;;5011581;28;20527;-67
2021/06/01 05:25:54;;;;;;;4.55;3.10;;;23.30;92.20;;;;;;5009968;28;20041;-67
2021/06/01 05:29:00;;;;;;;6.30;3.42;;;24.10;90.90;;;;;;5020620;28;20041;-67
2021/06/01 05:35:31;;;;;;;7.47;3.40;;;24.50;88.50;;;;;;5027770;28;20220;-67
2021/06/01 05:38:35;;;;;;;4.55;3.00;;;24.00;88.00;;;;;;5051365;28;20048;-67
2021/06/01 05:41:40;;;;;;;2.53;2.30;;;24.00;89.00;;;;;;5033844;28;20051;-67
2021/06/01 05:44:46;;;;;;;5.57;2.75;;;24.10;88.30;;;;;;5030313;28;20053;-67
2021/06/01 05:47:52;;;;;;;5.28;2.45;;;23.30;87.50;;;;;;5011437;28;20044;-67
2021/06/01 05:50:58;;;;;;;4.15;2.20;;;23.00;88.20;;;;;;5004827;28;20048;-67
2021/06/01 05:54:04;;;;;;;5.55;2.55;;;23.20;90.20;;;;;;5007550;28;20041;-67
2021/06/01 05:57:10;;;;;;;4.03;2.28;;;23.60;88.20;;;;;;5013284;28;20153;-67
2021/06/01 06:00:15;;;;;;;6.13;2.30;;;23.80;84.30;;;;;;5023533;28;20044;-67
2021/06/01 06:03:19;;;;;;;5.03;2.70;;;23.60;83.50;;;;;;5024165;28;20061;-67
2021/06/01 06:06:23;;;;;;;6.55;2.78;;;23.40;87.30;;;;;;5014068;28;20520;-68
2021/06/01 06:09:27;;;;;;;10.23;3.10;;;22.00;90.30;;;;;;5011541;28;20037;-67
2021/06/01 06:12:32;;;;;;;5.18;2.47;;;22.20;90.20;;;;;;5015328;28;20438;-68
2021/06/01 06:15:36;;;;;;;2.33;1.88;;;23.30;84.70;;;;;;5008160;28;20037;-68
2021/06/01 06:18:57;;;;;;;3.60;2.00;;;23.70;86.30;;;;;;5010799;28;20029;-68
2021/06/01 06:22:03;;;;;;;2.23;1.93;;;24.30;80.80;;;;;;5011066;28;20056;-68
2021/06/01 06:25:10;;;;;;;5.82;1.92;;;24.20;80.60;;;;;;5009615;28;20271;-68
2021/06/01 06:28:15;;;;;;;3.97;2.30;;;23.90;80.20;;;;;;5013910;28;20045;-69
2021/06/01 06:31:20;;;;;;;5.80;2.72;;;24.10;85.30;;;;;;5013762;28;20044;-68
2021/06/01 06:34:24;;;;;;;3.47;2.67;;;23.10;86.50;;;;;;5015118;28;20029;-68
2021/06/01 06:37:28;;;;;;;8.98;2.78;;;22.30;87.90;;;;;;5024513;28;20053;-67
2021/06/01 06:40:32;;;;;;;7.57;3.78;;;22.10;87.80;;;;;;5029085;28;20076;-66
2021/06/01 06:43:37;;;;;;;6.47;3.00;;;22.70;86.00;;;;;;5024906;28;20381;-67
2021/06/01 06:46:43;;;;;;;4.45;3.28;;;21.60;87.20;;;;;;5015962;28;20492;-66
2021/06/01 06:49:47;;;;;;;8.00;3.40;;;21.70;89.10;;;;;;5026671;28;20048;-66
2021/06/01 06:52:52;;;;;;;4.43;2.40;;;23.00;85.10;;;;;;5025443;28;20044;-67
2021/06/01 06:55:55;;;;;;;3.63;2.50;;;24.00;79.30;;;;;;5018163;28;20476;-66
2021/06/01 06:59:00;;;;;;;5.35;3.08;;;25.10;76.60;;;;;;5019290;28;20037;-67
2021/06/01 07:02:06;;;;;;;5.97;3.80;;;24.80;77.20;;;;;;5012368;28;20065;-67
2021/06/01 07:05:13;;;;;;;9.98;3.35;;;24.90;77.70;;;;;;5016606;28;20059;-68
2021/06/01 07:08:17;;;;;;;9.10;3.15;;;22.90;78.50;;;;;;5018546;28;20064;-68
2021/06/01 07:11:21;;;;;;;8.55;3.60;;;24.10;79.00;;;;;;5029944;28;20049;-68
2021/06/01 07:14:39;;;;;;;7.05;3.45;;;21.90;81.30;;;;;;5028880;28;20060;-69
2021/06/01 07:17:46;;;;;;;10.18;4.68;;;22.40;82.70;;;;;;5016406;28;20052;-69
2021/06/01 07:20:50;;;;;;;16.20;4.45;;;23.30;82.60;;;;;;5027551;28;20041;-68
2021/06/01 07:23:53;;;;;;;5.30;3.40;;;23.10;85.60;;;;;;5022452;28;20057;-69
2021/06/01 07:26:58;;;;;;;5.35;2.85;;;23.10;81.00;;;;;;5022258;28;20041;-68
2021/06/01 07:30:02;;;;;;;3.53;2.22;;;23.40;80.60;;;;;;5010692;28;20384;-68
2021/06/01 07:33:07;;;;;;;13.00;2.88;;;25.40;79.20;;;;;;4998293;28;20481;-68
2021/06/01 07:36:12;;;;;;;3.33;2.05;;;27.20;76.10;;;;;;5010676;28;20049;-67
2021/06/01 07:39:16;;;;;;;6.45;2.03;;;26.40;73.90;;;;;;5009949;28;20045;-67
2021/06/01 07:42:20;;;;;;;5.68;1.88;;;27.50;72.90;;;;;;5027010;28;20049;-67
2021/06/01 07:45:25;;;;;;;2.85;2.00;;;29.10;72.10;;;;;;5007810;28;20048;-67
2021/06/01 07:48:34;;;;;;;5.18;2.20;;;28.30;71.80;;;;;;4998791;28;20053;-67
2021/06/01 07:51:38;;;;;;;3.53;1.80;;;29.80;70.70;;;;;;5009764;28;20052;-67
2021/06/01 07:54:42;;;;;;;5.05;2.10;;;30.70;68.80;;;;;;5009393;28;20053;-68
2021/06/01 07:57:46;;;;;;;2.17;1.65;;;29.30;68.60;;;;;;5010378;28;20045;-67
2021/06/01 08:00:51;;;;;;;2.47;1.77;;;29.40;69.40;;;;;;5009495;28;20045;-67
2021/06/01 08:03:56;;;;;;;5.07;2.10;;;27.70;70.70;;;;;;5014005;28;20124;-68
2021/06/01 08:07:04;;;;;;;4.20;1.92;;;27.40;69.40;;;;;;5013482;28;20037;-67
2021/06/01 08:10:09;;;;;;;6.07;2.10;;;26.00;71.30;;;;;;5011366;28;20052;-67
2021/06/01 08:13:14;;;;;;;3.38;2.00;;;26.00;72.30;;;;;;5013882;28;20393;-67
2021/06/01 08:16:19;;;;;;;3.47;1.83;;;27.50;70.70;;;;;;5013080;28;20044;-68
2021/06/01 08:19:28;;;;;;;2.78;1.50;;;28.20;69.70;;;;;;5016774;28;20041;-69
2021/06/01 08:22:33;;;;;;;9.82;1.85;;;27.00;66.30;;;;;;5021529;28;20044;-69
2021/06/01 08:25:38;;;;;;;4.50;1.55;;;26.60;68.90;;;;;;5023649;28;20052;-68
2021/06/01 08:28:42;;;;;;;1.92;1.30;;;25.30;66.50;;;;;;5032656;28;20056;-67
2021/06/01 08:31:47;;;;;;;5.85;1.30;;;27.40;68.60;;;;;;5032230;28;20069;-66
2021/06/01 08:34:52;;;;;;;3.47;1.42;;;25.60;67.70;;;;;;5012417;28;20044;-68
2021/06/01 08:37:57;;;;;;;3.90;1.23;;;27.80;68.50;;;;;;5012969;28;20150;-69
2021/06/01 08:41:02;;;;;;;2.60;1.30;;;29.00;65.40;;;;;;5011599;28;20061;-69
2021/06/01 08:44:10;;;;;;;2.70;1.33;;;29.30;64.20;;;;;;5012159;28;20496;-66
2021/06/01 08:47:18;;;;;;;3.00;1.23;;;26.50;65.00;;;;;;5013041;28;20496;-67
2021/06/01 08:50:22;;;;;;;5.43;1.40;;;24.60;67.90;;;;;;5014003;28;20048;-68
2021/06/01 08:53:26;;;;;;;2.22;1.40;;;27.40;64.40;;;;;;5012671;28;20523;-67
2021/06/01 08:56:30;;;;;;;1.95;1.30;;;27.80;63.60;;;;;;5014562;28;20052;-67
2021/06/01 08:59:35;;;;;;;6.05;1.10;;;28.50;64.50;;;;;;5016650;28;20033;-68
2021/06/01 09:02:40;;;;;;;2.60;1.13;;;31.80;59.90;;;;;;5017490;28;20056;-69
2021/06/01 09:06:19;;;;;;;2.67;0.80;;;30.20;55.60;;;;;;5031029;28;20044;-68
2021/06/01 09:22:55;;;;;;;3.85;0.80;;;29.40;53.80;;;;;;5030066;28;20495;-67
2021/06/01 09:26:01;;;;;;;2.90;1.00;;;28.10;51.90;;;;;;5031276;28;20518;-68
2021/06/01 09:29:05;;;;;;;3.00;0.80;;;29.70;52.40;;;;;;5029193;28;20056;-68
2021/06/01 09:32:16;;;;;;;1.15;0.60;;;31.40;49.10;;;;;;5014441;28;20056;-69
2021/06/01 09:35:21;;;;;;;2.35;0.70;;;32.60;50.10;;;;;;5030953;28;20048;-67
2021/06/01 09:38:29;;;;;;;1.98;0.90;;;28.30;52.30;;;;;;5021978;28;20376;-68
2021/06/01 09:41:33;;;;;;;1.90;0.90;;;31.20;51.50;;;;;;5030787;28;20053;-69
2021/06/01 09:44:37;;;;;;;2.45;0.90;;;34.40;50.70;;;;;;5031225;28;20052;-67
2021/06/01 09:48:09;;;;;;;1.50;0.88;;;31.30;46.80;;;;;;5016222;28;20060;-69
2021/06/01 09:51:35;;;;;;;2.90;0.80;;;31.10;51.60;;;;;;5015498;28;20191;-68
2021/06/01 09:57:47;;;;;;;2.35;0.90;;;29.80;50.80;;;;;;5012068;28;20061;-68
2021/06/01 10:00:53;;;;;;;1.70;0.95;;;33.70;49.30;;;;;;5025467;28;20048;-68
2021/06/01 10:03:58;;;;;;;3.42;0.93;;;35.50;47.70;;;;;;5018155;28;20049;-69
2021/06/01 10:07:02;;;;;;;1.52;1.00;;;33.00;48.40;;;;;;5027765;28;20048;-68
2021/06/01 10:10:18;;;;;;;3.80;1.10;;;31.10;47.70;;;;;;5028326;28;20040;-67
2021/06/01 10:13:24;;;;;;;3.33;0.93;;;34.50;48.40;;;;;;5031360;28;20056;-68
2021/06/01 10:16:28;;;;;;;1.15;0.85;;;35.30;47.00;;;;;;5023246;28;20048;-68
2021/06/01 10:19:33;;;;;;;2.75;1.00;;;34.40;49.00;;;;;;5016548;28;20523;-69
2021/06/01 10:22:38;;;;;;;1.52;0.98;;;36.50;48.10;;;;;;5018877;28;20133;-69
2021/06/01 10:25:42;;;;;;;1.58;1.00;;;34.20;45.70;;;;;;5028630;28;20511;-69
2021/06/01 10:28:48;;;;;;;1.25;0.82;;;35.20;48.20;;;;;;5029245;28;20048;-69
2021/06/01 10:31:52;;;;;;;1.50;0.93;;;35.00;49.10;;;;;;5010448;28;20114;-71
2021/06/01 10:34:59;;;;;;;1.85;1.00;;;36.90;48.60;;;;;;5028926;28;20075;-69
2021/06/01 10:51:26;;;;;;;6.80;1.33;;;36.70;50.00;;;;;;5009536;28;20428;-70
2021/06/01 10:54:42;;;;;;;2.13;1.10;;;38.50;49.80;;;;;;5009668;28;20046;-68
2021/06/01 10:57:59;;;;;;;4.03;1.00;;;35.10;50.90;;;;;;5015332;28;20045;-68
2021/06/01 11:04:35;;;;;;;3.80;1.10;;;37.50;50.40;;;;;;5013752;28;20045;-69
2021/06/01 11:08:24;;;;;;;4.78;1.25;;;39.30;49.90;;;;;;5016606;28;20049;-68
2021/06/01 11:11:33;;;;;;;3.55;0.90;;;40.00;48.80;;;;;;5025648;28;20247;-69
2021/06/01 11:14:37;;;;;;;2.55;1.15;;;40.80;48.20;;;;;;5030008;28;20044;-69
2021/06/01 11:17:44;;;;;;;4.75;1.17;;;41.60;47.80;;;;;;5017040;28;20044;-67
2021/06/01 11:21:26;;;;;;;1.63;0.98;;;41.30;47.20;;;;;;5010162;28;20048;-68
2021/06/01 11:25:09;;;;;;;1.50;1.10;;;41.40;46.30;;;;;;5013878;28;20044;-69
2021/06/01 11:34:50;;;;;;;1.77;1.08;;;36.50;47.10;;;;;;5028281;28;19909;-68
2021/06/01 11:44:20;;;;;;;2.47;1.20;;;37.40;50.90;;;;;;5031614;28;20495;-68
2021/06/01 11:47:30;;;;;;;3.15;1.65;;;38.00;49.90;;;;;;5032493;28;20083;-67
2021/06/01 11:54:10;;;;;;;3.40;1.20;;;37.40;49.40;;;;;;5017759;28;20049;-68
2021/06/01 11:57:32;;;;;;;3.65;1.35;;;36.50;49.60;;;;;;5024629;28;20423;-69
2021/06/01 12:04:07;;;;;;;3.20;1.20;;;34.10;52.00;;;;;;5015872;28;20052;-67
2021/06/01 12:17:05;;;;;;;3.58;1.17;;;36.00;52.80;;;;;;5025542;28;20056;-68
2021/06/01 12:17:50;;;;;;;2.85;1.48;;;35.90;50.70;;;;;;5023621;28;20392;-68
2021/06/01 12:20:57;;;;;;;5.00;1.42;;;33.20;50.70;;;;;;5014452;28;20041;-68
2021/06/01 12:24:06;;;;;;;3.38;1.63;;;33.50;53.50;;;;;;5012841;28;20040;-68
2021/06/01 12:27:29;;;;;;;1.83;1.30;;;34.00;53.90;;;;;;5014175;28;20523;-68
2021/06/01 12:33:59;;;;;;;2.13;1.50;;;35.00;53.30;;;;;;5015351;28;20060;-68
2021/06/01 12:43:50;;;;;;;6.90;1.45;;;30.30;55.10;;;;;;4984409;28;20057;-68
2021/06/01 13:21:50;;;;;;;2.80;1.77;;;31.90;54.20;;;;;;5008424;28;20060;-69
2021/06/01 13:39:32;;;;;;;4.50;1.67;;;32.90;55.70;;;;;;5021136;28;20053;-69
2021/06/01 13:46:20;;;;;;;1.70;1.55;;;32.20;56.40;;;;;;5030878;28;20036;-68
2021/06/01 13:49:33;;;;;;;3.38;1.90;;;32.10;56.70;;;;;;5015500;28;20044;-67
2021/06/01 13:52:56;;;;;;;3.00;1.92;;;32.00;56.10;;;;;;5028716;28;20049;-69
2021/06/01 13:56:05;;;;;;;2.72;1.75;;;31.60;57.50;;;;;;5023481;28;20499;-67
2021/06/01 13:59:32;;;;;;;2.47;1.80;;;31.90;56.20;;;;;;5019957;28;20041;-69
2021/06/01 17:04:39;;;;;;;3.88;1.83;;;26.90;65.80;;;;;;5024854;28;20044;-69
2021/06/01 17:11:09;;;;;;;6.15;2.08;;;26.60;65.60;;;;;;5016392;28;20033;-68
2021/06/01 17:14:14;;;;;;;;;;;26.50;66.60;;;;;;5004279;28;20049;-68
2021/06/01 17:17:20;;;;;;;6.53;1.92;;;26.40;67.20;;;;;;5006166;28;19909;-69
2021/06/01 17:31:06;;;;;;;7.97;2.70;;;26.00;67.80;;;;;;4953527;28;20061;-69
2021/06/01 17:37:38;;;;;;;3.65;2.25;;;25.50;70.50;;;;;;5013395;28;20067;-69
2021/06/01 17:40:44;;;;;;;3.58;2.10;;;25.30;71.10;;;;;;5012511;28;20045;-70
2021/06/01 17:43:52;;;;;;;3.13;2.35;;;25.00;71.40;;;;;;5011770;28;20053;-69
2021/06/01 17:47:04;;;;;;;5.60;2.42;;;24.80;72.10;;;;;;5014738;28;20503;-68
2021/06/01 17:50:09;;;;;;;8.27;2.30;;;24.60;72.40;;;;;;5018192;28;20061;-68
2021/06/01 17:53:16;;;;;;;7.78;2.20;;;24.30;72.20;;;;;;5021326;28;20052;-68
2021/06/01 17:56:24;;;;;;;4.47;2.10;;;24.20;73.10;;;;;;5002012;28;20741;-68
2021/06/01 17:59:28;;;;;;;4.28;2.20;;;24.00;73.20;;;;;;5021290;28;20041;-69
2021/06/01 18:02:33;;;;;;;5.78;1.80;;;23.80;73.40;;;;;;5016271;28;20404;-69
2021/06/01 18:05:42;;;;;;;2.20;1.77;;;23.70;73.90;;;;;;5016876;28;20049;-68
2021/06/01 18:10:18;;;;;;;3.58;1.80;;;23.50;74.00;;;;;;5026229;28;20048;-68
2021/06/01 19:44:22;;;;;;;4.75;2.50;;;19.90;82.10;;;;;;5020358;28;20519;-67
2021/06/01 19:50:54;;;;;;;5.82;2.78;;;19.60;84.00;;;;;;5002331;28;20040;-66
2021/06/01 19:54:00;;;;;;;5.50;2.17;;;19.50;84.40;;;;;;5019319;28;20041;-67
2021/06/01 19:57:12;;;;;;;4.13;2.92;;;19.50;84.70;;;;;;5009810;28;20041;-66
2021/06/01 20:00:20;;;;;;;4.28;2.10;;;19.40;85.70;;;;;;5017603;28;20117;-66
2021/06/01 20:03:25;;;;;;;4.03;2.65;;;19.40;85.50;;;;;;5018745;28;20044;-66
2021/06/01 20:06:29;;;;;;;8.77;2.83;;;19.30;85.60;;;;;;5020177;28;20056;-66
2021/06/01 20:09:34;;;;;;;4.10;2.75;;;19.20;86.10;;;;;;5020840;28;20049;-65
2021/06/01 20:12:39;;;;;;;5.63;2.55;;;19.10;86.50;;;;;;5021617;28;20163;-65
2021/06/01 20:15:45;;;;;;;7.35;2.65;;;19.10;86.00;;;;;;5019520;28;20412;-66
2021/06/01 20:18:51;;;;;;;5.63;2.80;;;19.00;86.70;;;;;;5019756;28;20048;-66
2021/06/01 20:21:56;;;;;;;5.45;2.60;;;18.90;87.20;;;;;;5019281;28;20048;-67
2021/06/01 20:25:03;;;;;;;4.40;2.53;;;18.90;87.10;;;;;;5020693;28;20745;-66
2021/06/01 20:28:09;;;;;;;4.80;2.70;;;18.80;87.40;;;;;;5019938;28;20068;-66
2021/06/01 20:31:19;;;;;;;6.38;2.60;;;18.80;87.50;;;;;;5021340;28;20045;-65
2021/06/01 20:34:24;;;;;;;5.70;2.50;;;18.70;87.60;;;;;;5016612;28;20072;-65
2021/06/01 20:37:30;;;;;;;3.80;2.17;;;18.60;87.70;;;;;;5018792;28;20048;-67
2021/06/01 20:40:35;;;;;;;4.65;2.42;;;18.50;88.00;;;;;;5018416;28;20040;-67
2021/06/01 20:43:41;;;;;;;4.97;2.30;;;18.50;88.20;;;;;;5021559;28;20056;-67
2021/06/01 20:46:46;;;;;;;5.35;2.42;;;18.40;88.10;;;;;;5008499;28;20052;-67
2021/06/01 20:49:52;;;;;;;4.80;2.40;;;18.40;87.80;;;;;;5005716;28;20045;-67
2021/06/01 20:52:57;;;;;;;3.40;2.08;;;18.30;87.50;;;;;;5019058;28;20048;-67
2021/06/01 20:56:01;;;;;;;4.90;2.40;;;18.30;87.00;;;;;;5015612;28;20037;-67
2021/06/01 20:59:06;;;;;;;10.95;2.60;;;18.30;86.40;;;;;;5008851;28;20409;-67
2021/06/01 21:02:12;;;;;;;9.75;2.63;;;18.30;86.90;;;;;;5017014;28;20201;-66
2021/06/01 21:05:16;;;;;;;3.03;2.05;;;18.30;86.50;;;;;;5018799;28;20064;-67
2021/06/01 21:08:21;;;;;;;8.52;2.00;;;18.20;85.80;;;;;;5018473;28;20037;-66
2021/06/01 21:11:25;;;;;;;3.13;2.20;;;18.10;85.60;;;;;;5015262;28;20052;-67
2021/06/01 21:14:32;;;;;;;4.82;2.10;;;18.10;85.10;;;;;;5017247;28;20049;-67
2021/06/01 21:17:37;;;;;;;2.38;1.83;;;18.10;84.70;;;;;;5018169;28;20048;-67
2021/06/01 21:20:42;;;;;;;6.95;2.35;;;18.00;84.40;;;;;;5017023;28;20048;-66
2021/06/01 21:23:46;;;;;;;7.90;2.10;;;18.00;83.90;;;;;;5019327;28;20511;-66
2021/06/01 21:26:50;;;;;;;3.22;2.05;;;18.00;83.60;;;;;;5019358;28;20129;-67
2021/06/01 21:29:55;;;;;;;3.25;1.88;;;17.90;83.80;;;;;;5021588;28;20060;-67
2021/06/01 21:33:07;;;;;;;4.28;2.22;;;17.90;83.50;;;;;;5017606;28;20443;-67
2021/06/01 21:36:14;;;;;;;2.08;1.88;;;17.80;83.30;;;;;;5019124;28;20044;-67
2021/06/01 21:39:22;;;;;;;2.72;1.58;;;17.80;83.00;;;;;;5014666;28;20045;-67
2021/06/01 21:42:35;;;;;;;4.78;1.80;;;17.80;82.70;;;;;;5016830;28;20052;-67
2021/06/01 21:45:44;;;;;;;2.85;1.90;;;17.80;82.40;;;;;;5016021;28;20041;-67
2021/06/01 21:48:49;;;;;;;4.47;1.88;;;17.80;81.90;;;;;;5030599;28;20044;-67
2021/06/01 21:51:55;;;;;;;6.03;2.40;;;17.80;81.70;;;;;;5018596;28;20044;-66
2021/06/01 21:55:05;;;;;;;4.85;1.90;;;17.80;81.40;;;;;;5030090;28;20515;-67
2021/06/01 21:58:11;;;;;;;3.35;2.58;;;17.80;81.40;;;;;;5030973;28;20074;-67
2021/06/01 22:01:16;;;;;;;3.47;1.98;;;17.80;81.30;;;;;;5027137;28;20041;-67
2021/06/01 22:04:22;;;;;;;4.18;1.80;;;17.80;81.10;;;;;;5010559;28;20401;-68
2021/06/01 22:07:27;;;;;;;3.58;1.75;;;17.70;81.10;;;;;;4999142;28;20056;-67
2021/06/01 22:10:33;;;;;;;2.10;1.55;;;17.70;80.70;;;;;;5009605;28;20061;-67
2021/06/01 22:13:37;;;;;;;2.75;1.70;;;17.70;80.60;;;;;;5010739;28;20053;-67
2021/06/01 22:17:16;;;;;;;5.18;1.88;;;17.80;80.50;;;;;;5011132;28;20037;-67
2021/06/01 22:20:21;;;;;;;2.10;1.90;;;17.80;80.40;;;;;;5010541;28;20056;-66
2021/06/01 22:24:02;;;;;;;3.55;1.95;;;17.80;80.50;;;;;;5016844;28;20044;-67
2021/06/01 22:27:08;;;;;;;2.13;1.60;;;17.80;80.80;;;;;;5015391;28;20056;-67
2021/06/01 22:30:15;;;;;;;3.30;1.90;;;17.80;81.20;;;;;;5030196;28;20053;-67
2021/06/01 22:33:20;;;;;;;4.38;2.10;;;17.80;81.20;;;;;;5010748;28;20392;-67
2021/06/01 22:36:38;;;;;;;2.63;2.13;;;17.90;81.50;;;;;;5010291;28;20048;-66
2021/06/01 22:39:42;;;;;;;5.05;2.40;;;17.90;81.70;;;;;;5012824;28;20033;-67
2021/06/01 22:42:49;;;;;;;2.75;2.13;;;17.90;81.90;;;;;;5026655;28;20053;-67
2021/06/01 22:45:55;;;;;;;4.68;1.98;;;17.90;82.20;;;;;;5024866;28;20044;-67
2021/06/01 22:49:02;;;;;;;2.95;1.90;;;17.80;82.80;;;;;;5009733;28;20519;-68
2021/06/01 22:52:08;;;;;;;4.38;2.28;;;17.80;83.90;;;;;;5010351;28;20052;-67
2021/06/01 22:55:13;;;;;;;2.33;2.13;;;17.70;83.90;;;;;;5028944;28;20236;-68
2021/06/01 22:58:19;;;;;;;3.92;2.05;;;17.60;83.90;;;;;;5029989;28;20049;-68
2021/06/01 23:01:40;;;;;;;2.25;2.03;;;17.50;84.60;;;;;;5011332;28;20596;-68
2021/06/01 23:04:48;;;;;;;3.35;2.30;;;17.40;85.50;;;;;;5010044;28;20504;-68
2021/06/01 23:07:54;;;;;;;6.80;2.30;;;17.30;85.70;;;;;;5010482;28;20389;-68
2021/06/01 23:10:59;;;;;;;6.15;2.22;;;17.10;86.50;;;;;;5009273;28;20049;-68
2021/06/01 23:14:09;;;;;;;4.43;2.45;;;17.10;86.50;;;;;;5010074;28;20116;-68
2021/06/01 23:17:14;;;;;;;3.78;2.17;;;17.00;87.00;;;;;;5018483;28;20040;-67
2021/06/01 23:20:20;;;;;;;2.88;2.10;;;17.00;88.00;;;;;;5029424;28;20065;-67
2021/06/01 23:23:25;;;;;;;3.15;2.20;;;16.90;87.30;;;;;;5029274;28;20053;-67